CYQXCYJT

Guest
Details From CYQX - Gander Intl
To CYJT - Stephenville
Flight Number -
Tags Generated
Created
Modified
Stats Distance 160 nm / 296 km
Max Altitude 0 ft / 0 m
Waypoints 2
Social Downloads 1
Likes 0
Share VATSIM

Download

Looking for another format? Having issues loading an existing format? Contact us
Advertisement - Login to hide

Notes

Generated

Route

CYQX CYJT

ID Type Via Altitude Latitude Longitude Leg Dist Tot Dist Heading (true) Name
O CYQX APT - 0 ft / 0 m 48.94339˚ -54.56803˚ - 0 nm - GANDER INTL
O CYJT APT - 0 ft / 0 m 48.53389˚ -58.55250˚ 159 nm 159 nm 263° / 260° -

Altitude Profile

CYQX

Details ICAO CYQX (YQX)
Name GANDER INTL
Region Canada
Timezone America/St_Johns (UTC-3.5)
Stats Elevation 496 ft / 151 m (AMSL)
Location 48.942962° -54.565864°
Runways 3
Magnetic Variation 18.959° W

METAR

CYQX 200600Z 36003KT 8SM -SN OVC008 M04/M05 A2966 RMK SF8 SLP053

Decode

TAF

TAF TAF CYQX 200538Z 2006/2106 01010KT 6SM -SN OVC025 TEMPO 2006/2009 2SM -SHSN OVC003 PROB30 2006/2009 2SM -FZDZ BR OVC003 FM200900 01008KT 6SM -SN OVC005 TEMPO 2009/2013 2SM -SN OVC003 FM201300 35010KT P6SM -SHSN SCT006 BKN010 FM202200 35008KT 4SM -SHSN OVC006 PROB30 2022/2106 1SM -FZDZ BR VV003 RMK NXT FCST BY 201200Z

Decode

Departure Runways

ID Width Length Bearing (true) Bearing (mag) Surface Threshold Offset Overrun Length
03 200 ft / 61 m 10,230 ft / 3,118 m 10.93° 29.89° Asphalt 0 ft / 0 m 200 ft / 61 m
09 50 ft / 15 m 1,874 ft / 571 m 62.63° 81.59° Asphalt 0 ft / 0 m 75 ft / 23 m
13 200 ft / 61 m 8,855 ft / 2,699 m 107.30° 126.26° Asphalt 0 ft / 0 m 200 ft / 61 m
21 200 ft / 61 m 10,230 ft / 3,118 m 190.94° 209.90° Asphalt 0 ft / 0 m 199 ft / 61 m
27 50 ft / 15 m 1,874 ft / 571 m 242.64° 261.60° Asphalt 0 ft / 0 m 250 ft / 76 m
31 200 ft / 61 m 8,855 ft / 2,699 m 287.33° 306.29° Asphalt 0 ft / 0 m 201 ft / 61 m

CYJT

Details ICAO CYJT (YJT)
Name STEPHENVILLE
Region Canada
Timezone America/St_Johns (UTC-3.5)
Stats Elevation 80 ft / 24 m (AMSL)
Location 48.541811° -58.551488°
Runways 2
Magnetic Variation 19.066° W

METAR

CYJT 200600Z 35007KT 6SM -SN BKN015 OVC030 M03/M05 A2969 RMK SC5SC3 /S01/ SLP057

Decode

TAF

TAF CYJT 200538Z 2006/2106 35005KT P6SM SCT015 OVC030 TEMPO 2006/2013 3SM -SHSN BKN015 OVC030 BECMG 2006/2008 02005KT FM201300 05008KT P6SM -SHSN BKN020 FM202100 06012KT P6SM BKN030 FM210000 04010KT P6SM SCT030 RMK NXT FCST BY 201200Z

Decode

Destination Runways

ID Width Length Bearing (true) Bearing (mag) Surface Threshold Offset Overrun Length
02 150 ft / 46 m 3,770 ft / 1,149 m 355.50° 14.57° Asphalt 0 ft / 0 m 0 ft / 0 m
09 200 ft / 61 m 9,970 ft / 3,039 m 71.61° 90.68° Asphalt 0 ft / 0 m 1,000 ft / 305 m
20 150 ft / 46 m 3,770 ft / 1,149 m 175.50° 194.57° Asphalt 0 ft / 0 m 0 ft / 0 m
27 200 ft / 61 m 9,970 ft / 3,039 m 251.64° 270.71° Asphalt 0 ft / 0 m 1,000 ft / 305 m

Popular Alternatives